Time;durP1;ratioP1;P1;durP2;ratioP2;P2;SDS_P1;SDS_P2;PMS_P1;PMS_P2;Temp;Humidity;BMP_temperature;BMP_pressure;BME280_temperature;BME280_humidity;BME280_pressure;Samples;Min_cycle;Max_cycle;Signal;HPM_P1;HPM_P2
2023/12/11 00:01:35;;;;;;;34.42;7.40;;;;;;;8.63;100.00;99863.78;5084132;28;20475;-71
2023/12/11 00:04:01;;;;;;;32.55;6.53;;;;;;;8.57;100.00;99863.81;5085478;28;20029;-67
2023/12/11 00:06:26;;;;;;;32.80;6.63;;;;;;;8.51;100.00;99854.16;5086728;28;20078;-65
2023/12/11 00:08:51;;;;;;;35.72;6.80;;;;;;;8.50;100.00;99861.19;5084061;28;20105;-68
2023/12/11 00:11:17;;;;;;;33.90;7.13;;;;;;;8.45;100.00;99869.97;5087452;28;20029;-69
2023/12/11 00:13:42;;;;;;;32.40;7.28;;;;;;;8.50;100.00;99862.94;5084236;28;20067;-72
2023/12/11 00:16:08;;;;;;;33.63;7.28;;;;;;;8.48;100.00;99862.94;5086285;28;20052;-69
2023/12/11 00:18:34;;;;;;;32.28;6.78;;;;;;;8.51;100.00;99862.91;5085285;28;20060;-72
2023/12/11 00:21:00;;;;;;;31.80;6.68;;;;;;;8.57;100.00;99864.66;5085015;28;20066;-67
2023/12/11 00:23:26;;;;;;;31.90;6.70;;;;;;;8.58;100.00;99865.53;5086328;28;20024;-73
2023/12/11 00:25:52;;;;;;;34.47;7.00;;;;;;;8.55;100.00;99862.03;5084263;28;20376;-72
2023/12/11 00:28:17;;;;;;;33.50;6.65;;;;;;;8.55;100.00;99848.88;5087096;28;20032;-73
2023/12/11 00:30:42;;;;;;;35.67;7.45;;;;;;;8.61;100.00;99852.38;5083813;28;20056;-73
2023/12/11 00:33:08;;;;;;;36.60;7.15;;;;;;;8.57;100.00;99853.25;5086148;28;20039;-73
2023/12/11 00:35:33;;;;;;;36.83;7.50;;;;;;;8.56;100.00;99839.19;5085035;28;20103;-67
2023/12/11 00:37:59;;;;;;;34.13;7.40;;;;;;;8.60;100.00;99847.97;5084845;28;20044;-72
2023/12/11 00:40:24;;;;;;;32.88;6.60;;;;;;;8.62;100.00;99841.84;5086344;28;20093;-72
2023/12/11 00:42:49;;;;;;;31.90;6.78;;;;;;;8.69;100.00;99845.31;5083341;28;20456;-69
2023/12/11 00:45:16;;;;;;;33.92;6.38;;;;;;;8.73;100.00;99840.00;5086721;28;20032;-74
2023/12/11 00:47:41;;;;;;;37.40;7.22;;;;;;;8.70;100.00;99840.03;5083899;28;20434;-74
2023/12/11 00:50:07;;;;;;;30.65;6.57;;;;;;;8.79;100.00;99851.41;5085255;28;20045;-74
2023/12/11 00:52:32;;;;;;;33.05;7.50;;;;;;;8.80;100.00;99848.78;5085100;28;20070;-73
2023/12/11 00:54:59;;;;;;;34.03;6.90;;;;;;;8.80;100.00;99835.59;5084357;28;20024;-74
2023/12/11 00:57:24;;;;;;;30.95;6.53;;;;;;;8.84;100.00;99842.63;5085999;28;20028;-74
2023/12/11 00:59:49;;;;;;;34.05;7.07;;;;;;;8.88;100.00;99828.53;5082261;28;20521;-71
2023/12/11 01:02:16;;;;;;;34.08;7.13;;;;;;;8.95;100.00;99833.78;5086374;28;20036;-71
2023/12/11 01:04:42;;;;;;;33.58;7.22;;;;;;;8.87;100.00;99828.56;5083259;28;20036;-73
2023/12/11 01:07:07;;;;;;;33.33;7.05;;;;;;;8.80;100.00;99826.84;5085431;28;20081;-74
2023/12/11 01:09:33;;;;;;;32.20;6.60;;;;;;;8.77;100.00;99816.31;5084466;28;20032;-74
2023/12/11 01:11:58;;;;;;;32.38;6.30;;;;;;;8.79;100.00;99817.16;5083707;28;20021;-74
2023/12/11 01:14:23;;;;;;;34.35;7.03;;;;;;;8.79;100.00;99819.78;5085976;28;20047;-73
2023/12/11 01:16:49;;;;;;;32.15;6.47;;;;;;;8.78;100.00;99815.41;5082705;28;20051;-70
2023/12/11 01:19:15;;;;;;;34.45;7.28;;;;;;;8.87;100.00;99812.75;5084830;28;20058;-74
2023/12/11 01:21:40;;;;;;;34.10;7.22;;;;;;;8.85;100.00;99817.13;5083400;28;20124;-73
2023/12/11 01:24:06;;;;;;;30.42;6.63;;;;;;;8.80;100.00;99801.34;5084574;28;20032;-67
2023/12/11 01:26:31;;;;;;;34.05;6.78;;;;;;;8.84;100.00;99815.38;5084408;28;20024;-73
2023/12/11 01:28:56;;;;;;;31.85;6.47;;;;;;;8.85;100.00;99809.22;5083363;28;20115;-73
2023/12/11 01:31:22;;;;;;;32.83;6.68;;;;;;;8.90;100.00;99805.69;5085923;28;20032;-73
2023/12/11 01:33:47;;;;;;;31.05;6.20;;;;;;;8.94;100.00;99805.66;5082400;28;20020;-74
2023/12/11 01:36:13;;;;;;;30.67;6.60;;;;;;;8.94;100.00;99818.84;5085563;28;20032;-74
2023/12/11 01:38:38;;;;;;;32.03;6.53;;;;;;;8.99;100.00;99788.94;5083222;28;20028;-73
2023/12/11 01:41:03;;;;;;;31.52;6.75;;;;;;;9.05;100.00;99788.03;5083881;28;20051;-69
2023/12/11 01:43:29;;;;;;;33.03;6.55;;;;;;;9.04;100.00;99779.25;5084684;28;20407;-74
2023/12/11 01:46:10;;;;;;;30.58;6.07;;;;;;;9.05;100.00;99798.56;5082806;28;20054;-74
2023/12/11 01:48:36;;;;;;;28.80;6.40;;;;;;;9.04;100.00;99787.16;5083161;28;20046;-71
2023/12/11 01:51:02;;;;;;;31.42;6.60;;;;;;;9.13;100.00;99774.78;5083651;28;20115;-74
2023/12/11 01:53:28;;;;;;;29.00;5.82;;;;;;;9.18;100.00;99778.28;5084621;28;20041;-74
2023/12/11 01:55:54;;;;;;;33.08;6.30;;;;;;;9.28;100.00;99761.50;5082298;28;20024;-71
2023/12/11 01:58:20;;;;;;;29.77;6.03;;;;;;;9.27;100.00;99762.38;5085581;28;20024;-65
2023/12/11 02:00:47;;;;;;;29.67;5.75;;;;;;;9.25;100.00;99749.22;5077818;28;20456;-73
2023/12/11 02:03:12;;;;;;;32.22;6.20;;;;;;;9.31;100.00;99757.97;5084616;28;20052;-73
2023/12/11 02:05:38;;;;;;;29.98;6.40;;;;;;;9.40;100.00;99761.38;5083148;28;20059;-70
2023/12/11 02:08:04;;;;;;;32.22;6.50;;;;;;;9.42;100.00;99733.25;5083239;28;20025;-72
2023/12/11 02:10:29;;;;;;;30.58;6.53;;;;;;;9.32;100.00;99739.50;5083559;28;20044;-71
2023/12/11 02:12:55;;;;;;;29.92;6.00;;;;;;;9.38;100.00;99731.53;5082537;28;20035;-72
2023/12/11 02:15:39;;;;;;;29.05;5.70;;;;;;;9.41;100.00;99739.41;5085026;28;20112;-71
2023/12/11 02:18:04;;;;;;;30.95;6.03;;;;;;;9.39;100.00;99751.75;5081929;28;20487;-72
2023/12/11 02:20:30;;;;;;;28.42;5.90;;;;;;;9.46;100.00;99752.56;5083597;28;20419;-70
2023/12/11 02:23:00;;;;;;;29.80;5.97;;;;;;;9.42;100.00;99737.63;5082127;28;20356;-68
2023/12/11 02:25:27;;;;;;;29.35;6.30;;;;;;;9.42;100.00;99733.25;5084272;28;20020;-70
2023/12/11 02:27:52;;;;;;;29.00;5.65;;;;;;;9.41;100.00;99738.56;5081504;28;20036;-66
2023/12/11 02:30:18;;;;;;;32.03;6.05;;;;;;;9.43;100.00;99732.34;5084988;28;20115;-71
2023/12/11 02:32:43;;;;;;;29.60;5.63;;;;;;;9.40;100.00;99727.09;5081607;28;20025;-69
2023/12/11 02:35:08;;;;;;;29.73;5.68;;;;;;;9.41;100.00;99723.59;5083473;28;20036;-72
2023/12/11 02:37:34;;;;;;;31.92;6.40;;;;;;;9.40;100.00;99728.88;5083019;28;20543;-71
2023/12/11 02:39:59;;;;;;;30.90;6.28;;;;;;;9.41;100.00;99728.84;5082412;28;20033;-72
2023/12/11 02:42:24;;;;;;;29.27;5.97;;;;;;;9.42;100.00;99724.44;5084172;28;20382;-69
2023/12/11 02:44:50;;;;;;;30.20;6.05;;;;;;;9.36;100.00;99720.13;5081024;28;20032;-72
2023/12/11 02:47:15;;;;;;;29.60;6.22;;;;;;;9.30;100.00;99712.25;5084509;28;20043;-72
2023/12/11 02:49:40;;;;;;;31.00;6.07;;;;;;;9.27;100.00;99703.50;5082140;28;20052;-71
2023/12/11 02:52:06;;;;;;;28.73;5.43;;;;;;;9.31;100.00;99705.22;5082984;28;20029;-73
2023/12/11 02:54:31;;;;;;;25.73;5.65;;;;;;;9.32;100.00;99694.66;5083256;28;20051;-68
2023/12/11 02:56:57;;;;;;;28.13;5.70;;;;;;;9.20;100.00;99697.38;5081725;28;20029;-70
2023/12/11 02:59:22;;;;;;;28.42;5.45;;;;;;;9.07;100.00;99686.06;5084593;28;20036;-73
2023/12/11 03:01:47;;;;;;;30.35;5.57;;;;;;;8.79;100.00;99685.41;5080704;28;20067;-71
2023/12/11 03:04:13;;;;;;;24.92;5.03;;;;;;;8.72;100.00;99684.56;5084221;28;20368;-68
2023/12/11 03:06:38;;;;;;;28.00;5.43;;;;;;;8.54;100.00;99680.28;5081967;28;20020;-73
2023/12/11 03:09:03;;;;;;;31.77;5.57;;;;;;;8.64;100.00;99681.13;5082299;28;20024;-72
2023/12/11 03:11:29;;;;;;;31.10;5.90;;;;;;;8.77;100.00;99676.66;5083492;28;20062;-73
2023/12/11 03:13:54;;;;;;;28.38;5.55;;;;;;;8.79;100.00;99673.09;5081185;28;20376;-71
2023/12/11 03:16:20;;;;;;;28.10;5.78;;;;;;;8.86;100.00;99671.31;5084296;28;20474;-70
2023/12/11 03:18:45;;;;;;;28.38;5.75;;;;;;;8.76;100.00;99674.88;5080781;28;20033;-69
2023/12/11 03:21:11;;;;;;;29.95;6.30;;;;;;;8.82;100.00;99653.75;5083468;28;20114;-73
2023/12/11 03:23:39;;;;;;;29.70;5.38;;;;;;;8.87;100.00;99665.16;5085169;28;20359;-73
2023/12/11 03:26:04;;;;;;;27.58;6.03;;;;;;;8.85;100.00;99659.91;5086480;28;20035;-67
2023/12/11 03:28:30;;;;;;;29.63;6.03;;;;;;;8.85;100.00;99664.28;5087106;28;20024;-68
2023/12/11 03:30:55;;;;;;;34.63;5.97;;;;;;;8.89;100.00;99663.38;5085427;28;20033;-71
2023/12/11 03:33:21;;;;;;;28.02;5.25;;;;;;;8.98;100.00;99660.66;5088063;28;20115;-74
2023/12/11 03:35:46;;;;;;;28.42;5.45;;;;;;;8.99;100.00;99649.22;5084739;28;20025;-74
2023/12/11 03:38:11;;;;;;;29.58;5.57;;;;;;;9.06;100.00;99656.19;5087414;28;20515;-68
2023/12/11 03:40:37;;;;;;;30.50;5.65;;;;;;;9.08;100.00;99656.19;5085860;28;20032;-71
2023/12/11 03:43:02;;;;;;;27.10;5.28;;;;;;;9.08;100.00;99640.38;5085859;28;20027;-74
2023/12/11 03:45:27;;;;;;;27.05;5.25;;;;;;;8.92;100.00;99649.28;5087355;28;20031;-68
2023/12/11 03:47:53;;;;;;;29.13;5.93;;;;;;;8.71;100.00;99682.81;5084746;28;20413;-68
2023/12/11 03:50:18;;;;;;;28.05;5.43;;;;;;;8.62;100.00;99664.44;5087659;28;20047;-67
2023/12/11 03:52:43;;;;;;;25.80;4.90;;;;;;;8.50;100.00;99662.75;5084952;28;20395;-74
2023/12/11 03:55:09;;;;;;;30.83;5.63;;;;;;;8.32;100.00;99671.59;5086577;28;20066;-73
2023/12/11 03:57:34;;;;;;;25.65;4.95;;;;;;;8.27;100.00;99671.63;5086205;28;20020;-74
2023/12/11 03:59:59;;;;;;;27.10;5.30;;;;;;;8.21;100.00;99666.38;5085394;28;20033;-68
2023/12/11 04:02:25;;;;;;;28.08;5.50;;;;;;;8.16;100.00;99682.19;5087149;28;20061;-74
2023/12/11 04:04:50;;;;;;;28.00;5.07;;;;;;;8.15;100.00;99663.78;5084138;28;20040;-70
2023/12/11 04:07:16;;;;;;;25.70;4.60;;;;;;;8.13;100.00;99670.81;5087143;28;20039;-74
2023/12/11 04:09:41;;;;;;;31.73;6.22;;;;;;;8.13;100.00;99657.66;5084788;28;20055;-74
2023/12/11 04:12:06;;;;;;;29.45;5.50;;;;;;;8.15;100.00;99669.03;5086092;28;20024;-74
2023/12/11 04:14:32;;;;;;;27.98;5.50;;;;;;;8.20;100.00;99680.44;5086036;28;20372;-73
2023/12/11 04:16:57;;;;;;;28.45;5.45;;;;;;;8.31;100.00;99662.81;5084553;28;20111;-73
2023/12/11 04:19:22;;;;;;;31.00;5.70;;;;;;;8.24;100.00;99679.50;5087437;28;20459;-73
2023/12/11 04:21:48;;;;;;;34.83;6.30;;;;;;;8.14;100.00;99685.72;5083737;28;20043;-74
2023/12/11 04:24:13;;;;;;;33.35;6.05;;;;;;;8.08;100.00;99680.47;5086594;28;20059;-72
2023/12/11 04:26:39;;;;;;;31.27;6.00;;;;;;;8.01;100.00;99675.25;5085259;28;20032;-71
2023/12/11 04:29:04;;;;;;;32.10;6.22;;;;;;;7.99;100.00;99669.13;5085177;28;20452;-73
2023/12/11 04:31:29;;;;;;;33.05;6.15;;;;;;;7.98;100.00;99664.72;5086168;28;20115;-68
2023/12/11 04:33:55;;;;;;;30.27;5.75;;;;;;;8.03;100.00;99662.94;5083784;28;20036;-73
2023/12/11 04:36:20;;;;;;;33.20;6.20;;;;;;;8.04;100.00;99655.94;5086986;28;20017;-72
2023/12/11 04:38:46;;;;;;;34.50;6.80;;;;;;;8.02;100.00;99671.75;5083791;28;20029;-68
2023/12/11 04:41:11;;;;;;;33.13;6.60;;;;;;;8.05;100.00;99651.53;5085875;28;20382;-73
2023/12/11 04:43:37;;;;;;;31.98;6.10;;;;;;;7.98;100.00;99654.19;5084835;28;20057;-66
2023/12/11 04:46:02;;;;;;;30.60;5.97;;;;;;;8.03;100.00;99662.06;5084849;28;20028;-73
2023/12/11 04:48:28;;;;;;;30.95;5.95;;;;;;;7.99;100.00;99648.06;5085791;28;20161;-73
2023/12/11 04:50:53;;;;;;;34.25;6.40;;;;;;;8.02;100.00;99661.22;5083177;28;20052;-66
2023/12/11 04:53:19;;;;;;;31.63;6.03;;;;;;;7.96;100.00;99642.78;5086853;28;20517;-71
2023/12/11 04:55:44;;;;;;;33.40;6.15;;;;;;;8.04;100.00;99658.56;5083620;28;20137;-69
2023/12/11 04:58:09;;;;;;;31.73;5.93;;;;;;;7.96;100.00;99661.22;5085359;28;20031;-68
2023/12/11 05:00:35;;;;;;;31.23;6.50;;;;;;;7.99;100.00;99640.16;5083697;28;20058;-73
2023/12/11 05:03:00;;;;;;;32.42;6.80;;;;;;;7.98;100.00;99658.56;5083949;28;20036;-70
2023/12/11 05:05:25;;;;;;;32.60;6.35;;;;;;;8.05;100.00;99654.16;5086207;28;20032;-73
2023/12/11 05:07:51;;;;;;;34.67;6.90;;;;;;;7.97;100.00;99644.56;5082825;28;20048;-73
2023/12/11 05:10:16;;;;;;;35.42;6.68;;;;;;;7.98;100.00;99650.66;5086329;28;20512;-67
2023/12/11 05:12:42;;;;;;;34.03;6.30;;;;;;;7.95;100.00;99653.31;5083836;28;20077;-69
2023/12/11 05:15:07;;;;;;;36.58;6.63;;;;;;;7.94;100.00;99664.75;5084706;28;20021;-73
2023/12/11 05:17:33;;;;;;;34.42;6.50;;;;;;;7.98;100.00;99664.72;5084831;28;20117;-68
2023/12/11 05:19:58;;;;;;;31.27;6.28;;;;;;;8.02;100.00;99666.47;5083497;28;20033;-67
2023/12/11 05:22:24;;;;;;;32.50;6.15;;;;;;;8.01;100.00;99653.31;5085939;28;20036;-71
2023/12/11 05:24:50;;;;;;;36.50;7.18;;;;;;;8.02;100.00;99663.84;5082573;28;20471;-70
2023/12/11 05:27:16;;;;;;;32.22;6.32;;;;;;;8.03;100.00;99668.19;5085908;28;20078;-73
2023/12/11 05:29:41;;;;;;;38.95;7.68;;;;;;;8.04;100.00;99655.94;5083540;28;20036;-73
2023/12/11 05:32:06;;;;;;;33.40;6.78;;;;;;;8.05;100.00;99665.56;5084204;28;20410;-71
2023/12/11 05:34:32;;;;;;;35.65;6.70;;;;;;;8.05;100.00;99680.50;5084788;28;20421;-73
2023/12/11 05:36:57;;;;;;;33.22;6.05;;;;;;;8.09;100.00;99672.56;5082931;28;20035;-73
2023/12/11 05:39:22;;;;;;;34.13;6.35;;;;;;;8.08;100.00;99670.84;5085875;28;20378;-71
2023/12/11 05:41:48;;;;;;;34.20;6.78;;;;;;;8.11;100.00;99662.03;5082188;28;20102;-71
2023/12/11 05:44:13;;;;;;;33.25;6.82;;;;;;;8.06;100.00;99646.25;5085143;28;20024;-71
2023/12/11 05:46:38;;;;;;;34.38;6.68;;;;;;;8.06;100.00;99661.19;5082979;28;20036;-71
2023/12/11 05:49:04;;;;;;;33.35;6.70;;;;;;;8.10;100.00;99655.91;5083269;28;20049;-73
2023/12/11 05:51:29;;;;;;;34.72;6.22;;;;;;;8.11;100.00;99651.50;5084543;28;20024;-69
2023/12/11 05:53:55;;;;;;;27.27;5.35;;;;;;;8.10;100.00;99647.16;5082302;28;20115;-70
2023/12/11 05:56:21;;;;;;;33.85;6.40;;;;;;;8.09;100.00;99648.00;5085445;28;20050;-72
2023/12/11 05:58:46;;;;;;;32.28;5.97;;;;;;;8.05;100.00;99641.00;5082087;28;20036;-66
2023/12/11 06:01:12;;;;;;;30.80;6.68;;;;;;;8.02;100.00;99648.06;5084460;28;20039;-72
2023/12/11 06:03:37;;;;;;;32.05;5.95;;;;;;;8.02;100.00;99653.31;5083306;28;20072;-73
2023/12/11 06:06:03;;;;;;;30.27;6.30;;;;;;;8.05;100.00;99659.44;5083028;28;20037;-70
2023/12/11 06:08:28;;;;;;;32.40;6.38;;;;;;;8.00;100.00;99644.53;5084684;28;20119;-66
2023/12/11 06:10:53;;;;;;;33.08;6.57;;;;;;;7.96;100.00;99640.16;5081685;28;20037;-72
2023/12/11 06:13:19;;;;;;;31.50;6.45;;;;;;;7.93;100.00;99634.03;5077510;28;20395;-72
2023/12/11 06:15:44;;;;;;;32.78;6.93;;;;;;;7.92;100.00;99651.59;5084626;28;20115;-72
2023/12/11 06:18:10;;;;;;;34.83;7.15;;;;;;;7.92;100.00;99663.88;5082746;28;20039;-66
2023/12/11 06:20:35;;;;;;;35.78;7.00;;;;;;;7.96;100.00;99668.25;5083415;28;20459;-68
2023/12/11 06:23:00;;;;;;;31.40;6.68;;;;;;;7.91;100.00;99656.88;5083902;28;20028;-73
2023/12/11 06:25:26;;;;;;;28.98;6.22;;;;;;;7.90;100.00;99655.97;5081608;28;20365;-73
2023/12/11 06:27:51;;;;;;;32.15;7.38;;;;;;;7.91;100.00;99656.88;5085103;28;20066;-74
2023/12/11 06:30:17;;;;;;;34.58;7.50;;;;;;;7.88;100.00;99668.28;5081536;28;20107;-68
2023/12/11 06:32:42;;;;;;;35.40;7.13;;;;;;;7.89;100.00;99659.47;5083766;28;20111;-70
2023/12/11 06:35:08;;;;;;;32.63;7.43;;;;;;;7.87;100.00;99660.38;5083173;28;20039;-74
2023/12/11 06:37:33;;;;;;;34.15;7.47;;;;;;;7.90;100.00;99655.13;5082396;28;20097;-74
2023/12/11 06:39:59;;;;;;;32.42;7.10;;;;;;;7.89;100.00;99656.84;5084152;28;20028;-70
2023/12/11 06:42:24;;;;;;;33.75;6.93;;;;;;;7.87;100.00;99665.66;5081446;28;20044;-74
2023/12/11 06:44:49;;;;;;;31.63;6.70;;;;;;;7.84;100.00;99651.59;5084567;28;20490;-71
2023/12/11 06:47:15;;;;;;;28.63;5.85;;;;;;;7.87;100.00;99645.47;5081540;28;20036;-74
2023/12/11 06:49:42;;;;;;;31.90;6.50;;;;;;;7.87;100.00;99666.50;5083234;28;20052;-74
2023/12/11 06:52:08;;;;;;;31.05;6.30;;;;;;;7.83;100.00;99657.78;5082597;28;20035;-73
2023/12/11 06:54:33;;;;;;;30.13;6.28;;;;;;;7.83;100.00;99681.44;5082173;28;20031;-72
2023/12/11 06:56:59;;;;;;;29.73;6.20;;;;;;;7.89;100.00;99671.78;5083769;28;20453;-68
2023/12/11 06:59:24;;;;;;;29.73;5.95;;;;;;;7.88;100.00;99683.16;5081086;28;20021;-73
2023/12/11 07:01:49;;;;;;;26.17;5.25;;;;;;;7.87;100.00;99660.38;5077092;28;20186;-69
2023/12/11 07:04:15;;;;;;;32.95;6.38;;;;;;;7.87;100.00;99669.16;5083638;28;20077;-70
2023/12/11 07:06:40;;;;;;;33.63;6.05;;;;;;;7.89;100.00;99695.47;5081987;28;20063;-73
2023/12/11 07:09:06;;;;;;;28.92;5.75;;;;;;;7.92;100.00;99677.91;5082384;28;20518;-73
2023/12/11 07:11:31;;;;;;;31.38;6.50;;;;;;;7.90;100.00;99674.41;5083256;28;20067;-73
2023/12/11 07:13:56;;;;;;;29.52;5.80;;;;;;;7.87;100.00;99677.03;5080928;28;20032;-72
2023/12/11 07:16:23;;;;;;;26.60;5.22;;;;;;;7.91;100.00;99675.28;5084377;28;20114;-72
2023/12/11 07:18:48;;;;;;;27.55;5.22;;;;;;;7.94;100.00;99678.78;5081072;28;20079;-73
2023/12/11 07:21:14;;;;;;;25.92;5.35;;;;;;;7.93;100.00;99691.94;5083184;28;20040;-72
2023/12/11 07:23:39;;;;;;;26.17;4.78;;;;;;;7.87;100.00;99687.56;5082237;28;20032;-72
2023/12/11 07:26:08;;;;;;;26.75;5.30;;;;;;;7.94;100.00;99714.75;5082064;28;20054;-70
2023/12/11 07:28:35;;;;;;;26.20;4.90;;;;;;;7.87;100.00;99695.47;5082800;28;20032;-73
2023/12/11 07:31:01;;;;;;;27.98;5.28;;;;;;;7.90;100.00;99690.19;5081553;28;20043;-73
2023/12/11 07:33:27;;;;;;;24.23;4.32;;;;;;;7.87;100.00;99703.34;5083747;28;20383;-73
2023/12/11 07:35:52;;;;;;;28.13;5.70;;;;;;;7.82;100.00;99711.25;5080470;28;20033;-73
2023/12/11 07:38:17;;;;;;;26.60;5.03;;;;;;;7.82;100.00;99718.25;5083704;28;20471;-72
2023/12/11 07:40:43;;;;;;;27.48;5.10;;;;;;;7.75;100.00;99714.78;5081255;28;20093;-68
2023/12/11 07:43:08;;;;;;;27.52;5.57;;;;;;;7.77;100.00;99728.81;5082346;28;20033;-69
2023/12/11 07:45:34;;;;;;;28.27;5.35;;;;;;;7.78;100.00;99740.22;5082928;28;20047;-68
2023/12/11 07:48:00;;;;;;;24.52;4.50;;;;;;;7.80;100.00;99741.09;5079717;28;20441;-72
2023/12/11 07:50:25;;;;;;;29.90;5.43;;;;;;;7.75;100.00;99732.34;5083875;28;20040;-69
2023/12/11 07:52:50;;;;;;;25.58;5.13;;;;;;;7.73;100.00;99748.09;5080354;28;20036;-69
2023/12/11 07:55:16;;;;;;;28.38;5.13;;;;;;;7.71;100.00;99744.59;5083302;28;20446;-70
2023/12/11 07:57:41;;;;;;;27.50;5.25;;;;;;;7.71;100.00;99760.38;5081699;28;20027;-73
2023/12/11 08:00:07;;;;;;;25.73;4.90;;;;;;;7.72;100.00;99748.09;5081909;28;20403;-69
2023/12/11 08:02:35;;;;;;;28.35;5.10;;;;;;;7.71;100.00;99759.53;5082484;28;20459;-73
2023/12/11 08:05:00;;;;;;;26.83;4.68;;;;;;;7.68;100.00;99753.38;5081109;28;20020;-71
2023/12/11 08:07:26;;;;;;;24.38;4.53;;;;;;;7.71;100.00;99773.53;5083505;28;20383;-66
2023/12/11 08:09:52;;;;;;;28.02;5.43;;;;;;;7.75;100.00;99756.03;5083134;28;20036;-74
2023/12/11 08:12:17;;;;;;;25.98;4.40;;;;;;;7.77;100.00;99775.28;5087216;28;20024;-74
2023/12/11 08:14:42;;;;;;;27.38;4.88;;;;;;;7.76;100.00;99779.69;5084749;28;20024;-74
2023/12/11 08:17:08;;;;;;;26.17;4.93;;;;;;;7.81;100.00;99772.66;5085617;28;20021;-75
2023/12/11 08:19:33;;;;;;;23.85;4.30;;;;;;;7.80;100.00;99775.28;5086500;28;20502;-74
2023/12/11 08:21:59;;;;;;;25.35;5.40;;;;;;;7.84;100.00;99787.56;5084038;28;20499;-74
2023/12/11 08:24:25;;;;;;;24.23;4.60;;;;;;;7.84;100.00;99775.28;5087106;28;20455;-74
2023/12/11 08:26:50;;;;;;;25.15;4.60;;;;;;;7.84;100.00;99798.97;5084314;28;20040;-71
2023/12/11 08:29:17;;;;;;;27.42;5.13;;;;;;;7.82;100.00;99792.84;5086377;28;20036;-68
2023/12/11 08:31:43;;;;;;;24.92;4.38;;;;;;;7.88;100.00;99807.75;5084691;28;20028;-74
2023/12/11 08:34:09;;;;;;;24.80;4.55;;;;;;;7.92;100.00;99806.88;5085472;28;20078;-74
2023/12/11 08:36:34;;;;;;;24.83;4.72;;;;;;;8.05;100.00;99801.56;5085797;28;20028;-74
2023/12/11 08:38:59;;;;;;;24.55;4.50;;;;;;;8.06;100.00;99811.22;5084198;28;20071;-71
2023/12/11 08:41:25;;;;;;;24.33;4.53;;;;;;;8.14;100.00;99812.97;5087037;28;20036;-73
2023/12/11 08:43:50;;;;;;;20.80;3.83;;;;;;;8.15;100.00;99840.16;5083607;28;20028;-73
2023/12/11 08:46:16;;;;;;;23.23;4.40;;;;;;;8.22;100.00;99835.75;5086259;28;20073;-70
2023/12/11 08:48:43;;;;;;;23.48;4.60;;;;;;;8.12;100.00;99825.22;5084314;28;20376;-74
2023/12/11 08:51:09;;;;;;;21.95;4.10;;;;;;;8.14;100.00;99839.28;5085080;28;20487;-74
2023/12/11 08:53:34;;;;;;;24.05;4.28;;;;;;;8.05;100.00;99843.69;5085783;28;20028;-74
2023/12/11 08:55:59;;;;;;;25.13;4.22;;;;;;;7.99;100.00;99857.72;5083719;28;20441;-70
2023/12/11 08:58:25;;;;;;;25.48;4.35;;;;;;;7.91;100.00;99878.78;5086616;28;20463;-69
2023/12/11 09:00:50;;;;;;;26.77;4.72;;;;;;;7.92;100.00;99882.28;5083122;28;20036;-73
2023/12/11 09:03:16;;;;;;;27.17;4.65;;;;;;;7.76;100.00;99868.25;5085724;28;20024;-73
2023/12/11 09:05:41;;;;;;;29.50;5.28;;;;;;;7.75;100.00;99888.44;5084288;28;20028;-74
2023/12/11 09:08:07;;;;;;;26.70;4.75;;;;;;;7.82;100.00;99895.44;5084556;28;20032;-74
2023/12/11 09:10:34;;;;;;;23.45;4.55;;;;;;;7.71;100.00;99902.44;5085399;28;20188;-71
2023/12/11 09:13:00;;;;;;;27.67;4.85;;;;;;;7.72;100.00;99898.06;5083290;28;20032;-70
2023/12/11 09:15:25;;;;;;;25.90;4.45;;;;;;;7.71;100.00;99917.38;5086699;28;20375;-69
2023/12/11 09:17:50;;;;;;;24.70;4.22;;;;;;;7.74;100.00;99910.34;5082754;28;20056;-73
2023/12/11 09:20:16;;;;;;;25.52;4.95;;;;;;;7.73;100.00;99921.72;5084542;28;20573;-67
2023/12/11 09:22:41;;;;;;;24.45;4.18;;;;;;;7.69;100.00;99925.25;5083917;28;20081;-73
2023/12/11 09:25:07;;;;;;;24.50;4.60;;;;;;;7.70;100.00;99936.66;5084072;28;20020;-68
2023/12/11 09:27:33;;;;;;;23.25;4.32;;;;;;;7.77;100.00;99934.03;5084977;28;20047;-74
2023/12/11 09:29:58;;;;;;;23.75;4.38;;;;;;;7.79;100.00;99937.56;5082355;28;20021;-74
2023/12/11 09:32:24;;;;;;;23.45;3.92;;;;;;;7.82;100.00;99952.44;5085958;28;20032;-74
2023/12/11 09:34:49;;;;;;;20.52;3.30;;;;;;;7.94;100.00;99970.03;5082413;28;20040;-70
2023/12/11 09:37:18;;;;;;;21.70;3.60;;;;;;;8.00;100.00;99968.25;5084767;28;20120;-74
2023/12/11 09:39:44;;;;;;;20.35;3.40;;;;;;;8.14;100.00;99970.91;5083469;28;20418;-74
2023/12/11 09:42:11;;;;;;;20.88;3.70;;;;;;;8.31;100.00;99967.41;5084524;28;20043;-74
2023/12/11 09:44:37;;;;;;;18.60;3.63;;;;;;;8.57;100.00;99964.78;5084501;28;20040;-74
2023/12/11 09:47:09;;;;;;;21.95;3.60;;;;;;;8.55;100.00;99967.41;5083516;28;20056;-67
2023/12/11 09:49:35;;;;;;;19.00;3.20;;;;;;;8.61;100.00;99971.78;5084457;28;20443;-66
2023/12/11 09:52:01;;;;;;;21.52;4.00;;;;;;;8.62;100.00;99977.94;5082620;28;20032;-73
2023/12/11 09:54:27;;;;;;;21.08;3.75;;;;;;;8.92;100.00;99986.69;5085376;28;20124;-71
2023/12/11 09:56:53;;;;;;;22.75;3.92;;;;;;;9.17;100.00;99977.78;5080993;28;20029;-70
2023/12/11 09:59:20;;;;;;;21.10;3.60;;;;;;;9.36;100.00;99986.53;5085071;28;20024;-75
2023/12/11 10:01:47;;;;;;;20.67;4.07;;;;;;;9.35;100.00;99976.84;5082503;28;20060;-66
2023/12/11 10:04:13;;;;;;;19.00;3.40;;;;;;;9.24;100.00;99974.25;5084241;28;20020;-74
2023/12/11 10:06:39;;;;;;;22.15;3.70;;;;;;;8.99;100.00;99994.56;5083544;28;20070;-73
2023/12/11 10:09:05;;;;;;;20.98;3.70;;;;;;;8.95;100.00;99998.06;5082734;28;20104;-74
2023/12/11 10:11:30;;;;;;;22.38;3.85;;;;;;;9.00;100.00;99998.97;5084625;28;20059;-74
2023/12/11 10:14:09;;;;;;;19.67;3.53;;;;;;;9.16;100.00;99991.88;5081768;28;20055;-71
2023/12/11 10:16:36;;;;;;;22.00;4.20;;;;;;;9.16;100.00;100034.06;5080311;28;20029;-75
2023/12/11 10:19:02;;;;;;;19.90;3.63;;;;;;;9.22;100.00;100006.81;5079296;28;20012;-70
2023/12/11 10:21:36;;;;;;;20.45;3.70;;;;;;;9.37;100.00;100009.38;5085265;28;20039;-72
2023/12/11 10:24:07;;;;;;;18.55;3.10;;;;;;;9.56;100.00;99989.06;5082387;28;20410;-67
2023/12/11 10:26:35;;;;;;;17.60;3.55;;;;;;;9.29;100.00;100026.09;5083741;28;20048;-74
2023/12/11 10:29:18;;;;;;;18.77;3.30;;;;;;;9.39;100.00;100025.19;5084926;28;20463;-74
2023/12/11 10:31:44;;;;;;;16.63;3.10;;;;;;;9.18;100.00;100018.25;5078378;28;20044;-72
2023/12/11 10:34:09;;;;;;;19.75;3.50;;;;;;;9.17;100.00;100021.75;5084733;28;20487;-70
2023/12/11 10:36:34;;;;;;;20.55;3.45;;;;;;;9.19;100.00;100035.81;5084499;28;20159;-73
2023/12/11 10:39:08;;;;;;;18.90;3.10;;;;;;;9.19;100.00;100038.47;5082173;28;20032;-72
2023/12/11 10:41:34;;;;;;;17.83;2.90;;;;;;;9.20;100.00;100045.47;5084394;28;20024;-72
2023/12/11 10:43:59;;;;;;;18.83;3.33;;;;;;;9.36;100.00;100044.56;5082062;28;20032;-74
2023/12/11 10:46:25;;;;;;;20.63;3.53;;;;;;;9.53;100.00;100048.88;5081628;28;20024;-73
2023/12/11 10:48:52;;;;;;;19.15;3.15;;;;;;;9.63;100.00;100057.66;5080783;28;20143;-68
2023/12/11 10:51:17;;;;;;;20.45;3.50;;;;;;;9.45;100.00;100043.66;5083455;28;20062;-72
2023/12/11 10:53:44;;;;;;;18.45;3.30;;;;;;;9.55;100.00;100057.66;5081736;28;20029;-68
2023/12/11 10:56:10;;;;;;;22.33;3.85;;;;;;;9.52;100.00;100065.59;5084167;28;20042;-66
2023/12/11 10:58:35;;;;;;;19.65;4.00;;;;;;;9.34;100.00;100070.03;5080959;28;20111;-66
2023/12/11 11:01:01;;;;;;;18.45;3.20;;;;;;;9.30;100.00;100059.50;5084334;28;20032;-73
2023/12/11 11:03:29;;;;;;;19.77;3.47;;;;;;;9.21;100.00;100084.16;5081647;28;20036;-73
2023/12/11 11:05:56;;;;;;;18.63;3.03;;;;;;;9.10;100.00;100080.66;5083126;28;20132;-69
2023/12/11 11:08:40;;;;;;;20.70;3.33;;;;;;;8.97;100.00;100091.22;5082558;28;20027;-70
2023/12/11 11:11:37;;;;;;;20.73;3.65;;;;;;;8.78;100.00;100119.34;5077148;28;20108;-74
2023/12/11 11:14:43;;;;;;;20.13;3.53;;;;;;;8.64;100.00;100129.00;5072069;28;20093;-70
2023/12/11 11:17:09;;;;;;;14.73;2.60;;;;;;;8.50;100.00;100113.16;5077265;28;20106;-74
2023/12/11 11:19:35;;;;;;;12.20;2.40;;;;;;;8.26;100.00;100133.28;5076750;28;20020;-67